createdAt,value
2023-10-14T00:02:04.589Z,3.17
2023-10-14T00:04:32.185Z,3.07
2023-10-14T00:07:05.413Z,3.20
2023-10-14T00:09:37.693Z,3.00
2023-10-14T00:12:14.069Z,3.07
2023-10-14T00:14:44.960Z,2.73
2023-10-14T00:17:17.445Z,2.83
2023-10-14T00:19:50.692Z,3.33
2023-10-14T00:22:19.967Z,3.00
2023-10-14T00:24:50.180Z,3.27
2023-10-14T00:27:17.857Z,3.10
2023-10-14T00:29:45.141Z,3.00
2023-10-14T00:32:12.400Z,2.80
2023-10-14T00:34:39.878Z,3.03
2023-10-14T00:37:09.777Z,3.33
2023-10-14T00:39:37.272Z,3.23
2023-10-14T00:42:09.229Z,3.40
2023-10-14T00:44:39.022Z,2.87
2023-10-14T00:47:08.496Z,2.93
2023-10-14T00:49:37.180Z,3.27
2023-10-14T00:52:10.722Z,2.90
2023-10-14T00:54:43.840Z,2.90
2023-10-14T00:57:31.376Z,2.90
2023-10-14T00:59:58.678Z,3.53
2023-10-14T01:02:34.477Z,3.27
2023-10-14T01:05:14.793Z,2.77
2023-10-14T01:07:42.195Z,2.80
2023-10-14T01:10:13.603Z,2.77
2023-10-14T01:12:46.905Z,2.97
2023-10-14T01:15:20.413Z,3.00
2023-10-14T01:17:48.019Z,3.27
2023-10-14T01:20:15.357Z,3.60
2023-10-14T01:22:44.525Z,3.53
2023-10-14T01:25:16.652Z,3.27
2023-10-14T01:27:44.504Z,3.40
2023-10-14T01:30:16.062Z,3.20
2023-10-14T01:32:46.495Z,3.23
2023-10-14T01:35:17.494Z,3.07
2023-10-14T01:37:46.330Z,2.80
2023-10-14T01:40:28.713Z,2.87
2023-10-14T01:43:07.596Z,2.97
2023-10-14T01:45:49.358Z,3.00
2023-10-14T01:48:21.519Z,2.70
2023-10-14T01:50:56.824Z,2.90
2023-10-14T01:53:25.007Z,2.53
2023-10-14T01:55:54.096Z,2.80
2023-10-14T01:58:31.822Z,2.67
2023-10-14T02:01:06.585Z,2.67
2023-10-14T02:03:35.582Z,2.90
2023-10-14T02:06:12.153Z,2.70
2023-10-14T02:08:40.279Z,2.80
2023-10-14T02:11:07.607Z,2.97
2023-10-14T02:13:37.644Z,2.93
2023-10-14T02:16:09.189Z,2.80
2023-10-14T02:18:39.555Z,2.50
2023-10-14T02:21:07.829Z,2.77
2023-10-14T02:23:45.099Z,2.83
2023-10-14T02:26:23.475Z,3.03
2023-10-14T02:28:53.800Z,3.00
2023-10-14T02:31:30.866Z,2.63
2023-10-14T02:33:59.012Z,2.90
2023-10-14T02:36:35.860Z,2.70
2023-10-14T02:39:15.997Z,2.77
2023-10-14T02:42:00.139Z,3.03
2023-10-14T02:44:33.141Z,3.27
2023-10-14T02:47:10.194Z,2.80
2023-10-14T02:49:40.538Z,3.30
2023-10-14T02:52:12.423Z,2.67
2023-10-14T02:54:43.085Z,2.63
2023-10-14T02:57:29.297Z,3.03
2023-10-14T02:59:57.687Z,3.20
2023-10-14T03:02:26.835Z,3.03
2023-10-14T03:04:55.899Z,3.10
2023-10-14T03:07:34.539Z,3.10
2023-10-14T03:10:27.214Z,3.10
2023-10-14T03:12:54.536Z,3.10
2023-10-14T03:15:23.214Z,3.13
2023-10-14T03:17:57.030Z,3.53
2023-10-14T03:20:28.426Z,3.33
2023-10-14T03:23:13.329Z,3.40
2023-10-14T03:25:41.296Z,3.67
2023-10-14T03:28:16.376Z,3.10
2023-10-14T03:30:47.963Z,3.40
2023-10-14T03:33:16.054Z,3.60
2023-10-14T03:35:44.745Z,3.70
2023-10-14T03:38:34.544Z,3.70
2023-10-14T03:41:05.661Z,3.00
2023-10-14T03:43:43.845Z,3.83
2023-10-14T03:46:16.087Z,3.50
2023-10-14T03:48:47.145Z,3.40
2023-10-14T03:51:28.785Z,3.73
2023-10-14T03:53:57.033Z,3.93
2023-10-14T03:56:26.590Z,3.43
2023-10-14T03:58:59.164Z,3.77
2023-10-14T04:01:35.219Z,3.30
2023-10-14T04:04:16.508Z,3.33
2023-10-14T04:06:44.830Z,4.03
2023-10-14T04:09:18.659Z,3.63
2023-10-14T04:11:48.560Z,3.60
2023-10-14T04:14:18.626Z,4.00
2023-10-14T04:16:45.962Z,3.50
2023-10-14T04:19:20.012Z,3.50
2023-10-14T04:21:54.650Z,3.73
2023-10-14T04:24:30.288Z,3.47
2023-10-14T04:27:17.824Z,3.87
2023-10-14T04:29:59.522Z,3.90
2023-10-14T04:32:28.860Z,3.53
2023-10-14T04:34:58.417Z,4.50
2023-10-14T04:37:37.857Z,3.53
2023-10-14T04:40:17.128Z,3.57
2023-10-14T04:42:45.545Z,3.33
2023-10-14T04:45:15.172Z,3.73
2023-10-14T04:47:46.184Z,3.50
2023-10-14T04:50:14.885Z,3.60
2023-10-14T04:52:42.797Z,3.77
2023-10-14T04:55:22.659Z,3.50
2023-10-14T04:58:10.688Z,3.27
2023-10-14T05:00:44.779Z,4.00
2023-10-14T05:03:16.046Z,3.80
2023-10-14T05:06:19.203Z,3.33
2023-10-14T05:08:46.922Z,3.53
2023-10-14T05:11:14.887Z,4.00
2023-10-14T05:13:45.745Z,4.17
2023-10-14T05:16:39.238Z,3.53
2023-10-14T05:19:12.886Z,3.53
2023-10-14T05:21:44.664Z,3.93
2023-10-14T05:24:12.724Z,3.87
2023-10-14T05:26:53.861Z,4.00
2023-10-14T05:29:23.501Z,4.17
2023-10-14T05:31:51.725Z,3.97
2023-10-14T05:34:22.798Z,3.87
2023-10-14T05:36:53.885Z,3.73
2023-10-14T05:39:21.787Z,4.07
2023-10-14T05:41:49.900Z,3.73
2023-10-14T05:44:17.238Z,3.43
2023-10-14T05:46:44.566Z,3.80
2023-10-14T05:49:12.205Z,4.20
2023-10-14T05:51:40.226Z,3.80
2023-10-14T05:54:09.322Z,4.27
2023-10-14T05:56:36.978Z,3.60
2023-10-14T05:59:04.623Z,4.27
2023-10-14T06:01:32.169Z,3.47
2023-10-14T06:03:59.719Z,3.63
2023-10-14T06:06:27.488Z,4.20
2023-10-14T06:08:54.838Z,3.50
2023-10-14T06:11:22.093Z,3.73
2023-10-14T06:13:49.409Z,4.10
2023-10-14T06:16:16.734Z,3.70
2023-10-14T06:18:49.259Z,3.80
2023-10-14T06:21:16.797Z,3.97
2023-10-14T06:23:50.531Z,3.80
2023-10-14T06:26:18.463Z,4.27
2023-10-14T06:28:46.357Z,4.00
2023-10-14T06:31:14.217Z,4.00
2023-10-14T06:33:41.876Z,3.60
2023-10-14T06:36:14.786Z,3.70
2023-10-14T06:38:45.645Z,3.90
2023-10-14T06:41:14.767Z,3.67
2023-10-14T06:43:44.614Z,4.03
2023-10-14T06:46:17.582Z,4.27
2023-10-14T06:48:47.163Z,4.10
2023-10-14T06:51:14.698Z,4.00
2023-10-14T06:53:42.450Z,4.10
2023-10-14T06:56:12.776Z,4.17
2023-10-14T06:58:40.610Z,4.60
2023-10-14T07:01:08.493Z,4.40
2023-10-14T07:03:36.648Z,4.50
2023-10-14T07:06:06.238Z,4.00
2023-10-14T07:08:33.797Z,4.17
2023-10-14T07:11:01.660Z,4.10
2023-10-14T07:13:29.492Z,4.20
2023-10-14T07:15:56.869Z,4.00
2023-10-14T07:18:24.819Z,4.07
2023-10-14T07:21:02.094Z,4.17
2023-10-14T07:23:30.626Z,4.37
2023-10-14T07:25:59.055Z,3.80
2023-10-14T07:28:26.767Z,3.10
2023-10-14T07:30:58.104Z,2.67
2023-10-14T07:33:26.280Z,1.87
2023-10-14T07:35:53.677Z,1.80
2023-10-14T07:38:21.643Z,1.50
2023-10-14T07:40:50.923Z,1.60
2023-10-14T07:43:18.303Z,1.40
2023-10-14T07:45:49.671Z,1.30
2023-10-14T07:48:21.393Z,1.30
2023-10-14T07:50:49.758Z,1.73
2023-10-14T07:53:23.742Z,1.03
2023-10-14T07:55:52.257Z,1.40
2023-10-14T07:58:24.601Z,1.37
2023-10-14T08:00:52.599Z,1.20
2023-10-14T08:03:32.926Z,1.20
2023-10-14T08:06:01.353Z,1.27
2023-10-14T08:08:32.866Z,1.70
2023-10-14T08:11:01.255Z,1.60
2023-10-14T08:13:32.768Z,1.33
2023-10-14T08:16:00.547Z,1.20
2023-10-14T08:18:28.125Z,1.30
2023-10-14T08:20:56.021Z,1.30
2023-10-14T08:23:24.037Z,1.30
2023-10-14T08:26:01.390Z,1.90
2023-10-14T08:28:29.285Z,1.03
2023-10-14T08:31:00.215Z,1.20
2023-10-14T08:33:29.490Z,10.53
2023-10-14T08:35:57.292Z,5.97
2023-10-14T08:38:28.322Z,0.83
2023-10-14T08:40:56.327Z,0.90
2023-10-14T08:43:24.323Z,1.23
2023-10-14T08:45:52.507Z,0.87
2023-10-14T08:48:25.005Z,0.67
2023-10-14T08:51:00.264Z,0.70
2023-10-14T08:53:28.491Z,0.87
2023-10-14T08:55:56.867Z,1.00
2023-10-14T08:58:24.629Z,0.70
2023-10-14T09:00:56.383Z,0.77
2023-10-14T09:03:25.815Z,0.90
2023-10-14T09:05:53.986Z,1.00
2023-10-14T09:08:22.178Z,0.80
2023-10-14T09:10:53.951Z,1.20
2023-10-14T09:13:21.793Z,1.17
2023-10-14T09:15:50.610Z,1.10
2023-10-14T09:18:22.999Z,1.20
2023-10-14T09:20:55.581Z,1.07
2023-10-14T09:23:26.240Z,1.10
2023-10-14T09:25:54.385Z,1.10
2023-10-14T09:28:22.909Z,1.50
2023-10-14T09:30:54.298Z,1.50
2023-10-14T09:33:29.562Z,1.10
2023-10-14T09:36:00.616Z,1.20
2023-10-14T09:38:28.723Z,1.20
2023-10-14T09:41:00.622Z,1.27
2023-10-14T09:43:28.516Z,1.20
2023-10-14T09:45:57.531Z,1.20
2023-10-14T09:48:32.940Z,1.83
2023-10-14T09:51:01.915Z,1.20
2023-10-14T09:53:30.117Z,1.00
2023-10-14T09:55:57.436Z,0.90
2023-10-14T09:58:27.328Z,1.20
2023-10-14T10:00:55.057Z,1.40
2023-10-14T10:03:23.554Z,1.40
2023-10-14T10:05:59.528Z,1.33
2023-10-14T10:08:42.266Z,1.30
2023-10-14T10:11:12.228Z,1.30
2023-10-14T10:13:42.718Z,1.30
2023-10-14T10:16:15.029Z,1.17
2023-10-14T10:18:59.069Z,1.20
2023-10-14T10:21:33.420Z,1.40
2023-10-14T10:24:11.104Z,1.63
2023-10-14T10:26:58.070Z,1.10
2023-10-14T10:29:25.788Z,1.10
2023-10-14T10:32:10.215Z,1.40
2023-10-14T10:34:57.593Z,1.40
2023-10-14T10:37:29.061Z,1.43
2023-10-14T10:39:56.532Z,1.20
2023-10-14T10:42:23.856Z,1.40
2023-10-14T10:44:51.226Z,1.37
2023-10-14T10:47:18.582Z,1.20
2023-10-14T10:49:57.978Z,1.50
2023-10-14T10:52:28.229Z,1.47
2023-10-14T10:54:57.662Z,1.83
2023-10-14T10:57:26.702Z,1.53
2023-10-14T10:59:56.007Z,1.50
2023-10-14T11:02:23.681Z,1.33
2023-10-14T11:04:52.881Z,1.50
2023-10-14T11:07:24.360Z,1.23
2023-10-14T11:09:52.638Z,1.40
2023-10-14T11:12:20.255Z,1.47
2023-10-14T11:14:50.127Z,2.07
2023-10-14T11:17:17.939Z,2.43
2023-10-14T11:19:45.762Z,1.93
2023-10-14T11:22:13.355Z,1.93
2023-10-14T11:24:43.478Z,1.30
2023-10-14T11:27:11.336Z,2.13
2023-10-14T11:29:42.092Z,1.47
2023-10-14T11:32:14.221Z,1.70
2023-10-14T11:34:43.510Z,1.97
2023-10-14T11:37:12.541Z,1.50
2023-10-14T11:39:40.094Z,1.63
2023-10-14T11:42:07.610Z,1.30
2023-10-14T11:44:37.250Z,1.23
2023-10-14T11:47:08.922Z,1.60
2023-10-14T11:49:40.149Z,1.30
2023-10-14T11:52:07.635Z,1.53
2023-10-14T11:54:35.888Z,1.10
2023-10-14T11:57:03.287Z,1.43
2023-10-14T11:59:30.653Z,1.53
2023-10-14T12:02:00.224Z,1.30
2023-10-14T12:04:29.531Z,1.60
2023-10-14T12:06:57.035Z,1.33
2023-10-14T12:09:24.633Z,1.17
2023-10-14T12:11:52.214Z,1.17
2023-10-14T12:14:19.483Z,1.77
2023-10-14T12:16:49.704Z,1.60
2023-10-14T12:19:19.750Z,1.60
2023-10-14T12:21:47.088Z,1.30
2023-10-14T12:24:14.432Z,1.67
2023-10-14T12:26:47.719Z,1.40
2023-10-14T12:29:15.143Z,1.33
2023-10-14T12:31:46.864Z,1.70
2023-10-14T12:34:16.067Z,1.83
2023-10-14T12:36:45.946Z,1.47
2023-10-14T12:39:28.221Z,1.17
2023-10-14T12:42:03.474Z,1.70
2023-10-14T12:44:31.107Z,1.43
2023-10-14T12:46:58.912Z,1.47
2023-10-14T12:49:27.739Z,1.40
2023-10-14T12:52:02.497Z,1.47
2023-10-14T12:54:35.591Z,1.67
2023-10-14T12:57:05.320Z,1.50
2023-10-14T12:59:33.306Z,1.33
2023-10-14T13:02:00.932Z,1.30
2023-10-14T13:04:28.815Z,1.53
2023-10-14T13:06:56.652Z,1.33
2023-10-14T13:09:30.604Z,1.80
2023-10-14T13:11:59.159Z,1.53
2023-10-14T13:14:30.078Z,1.40
2023-10-14T13:17:02.461Z,1.53
2023-10-14T13:19:39.709Z,1.47
2023-10-14T13:22:14.953Z,1.40
2023-10-14T13:24:50.676Z,1.40
2023-10-14T13:27:18.641Z,1.57
2023-10-14T13:29:46.042Z,1.40
2023-10-14T13:32:16.675Z,1.20
2023-10-14T13:34:46.433Z,1.80
2023-10-14T13:37:15.124Z,1.53
2023-10-14T13:39:43.962Z,1.40
2023-10-14T13:42:11.252Z,1.50
2023-10-14T13:44:38.585Z,1.20
2023-10-14T13:47:06.893Z,1.47
2023-10-14T13:49:35.170Z,1.47
2023-10-14T13:52:04.631Z,1.37
2023-10-14T13:54:32.581Z,1.50
2023-10-14T13:56:59.968Z,1.40
2023-10-14T13:59:27.369Z,1.47
2023-10-14T14:01:54.871Z,1.10
2023-10-14T14:04:22.685Z,1.33
2023-10-14T14:06:53.772Z,1.60
2023-10-14T14:09:25.005Z,1.60
2023-10-14T14:11:57.520Z,1.80
2023-10-14T14:14:25.756Z,1.30
2023-10-14T14:16:53.282Z,1.60
2023-10-14T14:19:20.878Z,1.30
2023-10-14T14:21:48.908Z,1.40
2023-10-14T14:24:16.731Z,1.37
2023-10-14T14:26:44.461Z,1.67
2023-10-14T14:29:12.939Z,1.57
2023-10-14T14:31:40.739Z,1.40
2023-10-14T14:34:13.562Z,1.70
2023-10-14T14:36:45.918Z,1.40
2023-10-14T14:39:16.676Z,1.73
2023-10-14T14:41:52.252Z,1.50
2023-10-14T14:44:20.510Z,1.20
2023-10-14T14:46:48.329Z,1.60
2023-10-14T14:49:16.033Z,1.57
2023-10-14T14:51:44.254Z,1.40
2023-10-14T14:54:12.225Z,1.77
2023-10-14T14:56:40.057Z,1.70
2023-10-14T14:59:07.496Z,1.53
2023-10-14T15:01:35.912Z,1.77
2023-10-14T15:04:05.412Z,1.23
2023-10-14T15:06:32.964Z,1.40
2023-10-14T15:09:00.331Z,1.73
2023-10-14T15:11:27.616Z,1.53
2023-10-14T15:13:55.186Z,1.20
2023-10-14T15:16:37.198Z,1.23
2023-10-14T15:19:09.383Z,2.30
2023-10-14T15:21:36.929Z,1.77
2023-10-14T15:24:06.492Z,1.67
2023-10-14T15:26:33.821Z,1.23
2023-10-14T15:29:05.002Z,1.30
2023-10-14T15:31:33.614Z,1.50
2023-10-14T15:34:03.101Z,1.43
2023-10-14T15:36:30.632Z,1.60
2023-10-14T15:38:58.154Z,1.67
2023-10-14T15:41:26.565Z,1.47
2023-10-14T15:43:54.373Z,1.70
2023-10-14T15:46:21.969Z,1.40
2023-10-14T15:48:52.749Z,1.50
2023-10-14T15:51:20.894Z,1.90
2023-10-14T15:53:54.835Z,2.10
2023-10-14T15:56:22.190Z,1.80
2023-10-14T15:58:51.815Z,1.70
2023-10-14T16:01:21.482Z,1.93
2023-10-14T16:03:49.618Z,1.70
2023-10-14T16:06:17.161Z,1.43
2023-10-14T16:08:44.544Z,2.13
2023-10-14T16:11:16.030Z,1.87
2023-10-14T16:13:43.904Z,1.77
2023-10-14T16:16:11.386Z,1.70
2023-10-14T16:18:38.883Z,1.70
2023-10-14T16:21:06.653Z,1.63
2023-10-14T16:23:34.422Z,1.60
2023-10-14T16:26:01.764Z,1.77
2023-10-14T16:28:29.079Z,1.80
2023-10-14T16:30:56.837Z,1.53
2023-10-14T16:33:24.241Z,1.77
2023-10-14T16:35:52.114Z,1.63
2023-10-14T16:38:24.733Z,1.70
2023-10-14T16:40:52.138Z,1.87
2023-10-14T16:43:19.556Z,1.73
2023-10-14T16:45:47.868Z,1.80
2023-10-14T16:48:16.942Z,1.67
2023-10-14T16:50:44.986Z,1.80
2023-10-14T16:53:13.292Z,2.20
2023-10-14T16:55:40.928Z,1.73
2023-10-14T16:58:08.698Z,1.43
2023-10-14T17:00:36.365Z,1.53
2023-10-14T17:03:05.501Z,2.00
2023-10-14T17:05:33.768Z,2.17
2023-10-14T17:08:07.926Z,1.90
2023-10-14T17:10:39.129Z,2.07
2023-10-14T17:13:07.054Z,2.10
2023-10-14T17:15:34.581Z,2.33
2023-10-14T17:18:02.808Z,1.80
2023-10-14T17:20:31.525Z,2.17
2023-10-14T17:23:02.058Z,2.00
2023-10-14T17:25:30.927Z,3.67
2023-10-14T17:28:00.139Z,2.10
2023-10-14T17:30:28.526Z,12.63
2023-10-14T17:32:57.083Z,2.57
2023-10-14T17:35:24.560Z,2.50
2023-10-14T17:37:52.980Z,2.10
2023-10-14T17:40:21.090Z,1.73
2023-10-14T17:42:52.293Z,1.93
2023-10-14T17:45:20.630Z,1.80
2023-10-14T17:47:50.420Z,2.30
2023-10-14T17:50:23.107Z,2.10
2023-10-14T17:52:55.634Z,2.30
2023-10-14T17:55:26.491Z,2.47
2023-10-14T17:57:54.954Z,2.03
2023-10-14T18:00:38.122Z,2.60
2023-10-14T18:03:13.091Z,1.90
2023-10-14T18:05:49.139Z,2.50
2023-10-14T18:08:17.842Z,1.90
2023-10-14T18:10:46.431Z,2.30
2023-10-14T18:13:20.401Z,2.27
2023-10-14T18:15:48.185Z,2.10
2023-10-14T18:18:15.703Z,2.70
2023-10-14T18:20:43.470Z,2.60
2023-10-14T18:23:11.265Z,2.73
2023-10-14T18:25:44.441Z,2.13
2023-10-14T18:28:12.893Z,2.27
2023-10-14T18:30:43.741Z,2.40
2023-10-14T18:33:12.444Z,2.30
2023-10-14T18:35:40.982Z,2.50
2023-10-14T18:38:11.723Z,2.40
2023-10-14T18:40:40.017Z,2.10
2023-10-14T18:43:08.541Z,2.60
2023-10-14T18:45:36.655Z,2.47
2023-10-14T18:48:11.076Z,2.70
2023-10-14T18:50:39.510Z,2.40
2023-10-14T18:53:07.712Z,2.07
2023-10-14T18:55:36.192Z,2.63
2023-10-14T18:58:06.054Z,2.40
2023-10-14T19:00:41.844Z,2.30
2023-10-14T19:03:11.196Z,2.57
2023-10-14T19:05:39.460Z,2.53
2023-10-14T19:08:13.695Z,2.50
2023-10-14T19:10:43.569Z,2.70
2023-10-14T19:13:12.480Z,2.70
2023-10-14T19:15:40.917Z,2.50
2023-10-14T19:18:16.873Z,2.30
2023-10-14T19:20:44.290Z,1.97
2023-10-14T19:23:16.034Z,2.47
2023-10-14T19:25:46.564Z,2.20
2023-10-14T19:28:15.308Z,2.20
2023-10-14T19:30:46.309Z,2.27
2023-10-14T19:33:16.612Z,2.23
2023-10-14T19:35:45.988Z,1.80
2023-10-14T19:38:13.780Z,2.10
2023-10-14T19:40:42.478Z,2.27
2023-10-14T19:43:13.546Z,2.20
2023-10-14T19:45:44.872Z,2.53
2023-10-14T19:48:15.397Z,2.30
2023-10-14T19:50:46.532Z,3.10
2023-10-14T19:53:14.442Z,2.27
2023-10-14T19:55:45.812Z,2.70
2023-10-14T19:58:14.048Z,2.43
2023-10-14T20:00:46.762Z,2.17
2023-10-14T20:03:15.490Z,2.43
2023-10-14T20:05:49.036Z,2.70
2023-10-14T20:08:23.513Z,2.43
2023-10-14T20:10:55.470Z,2.57
2023-10-14T20:13:23.545Z,2.13
2023-10-14T20:15:50.927Z,2.80
2023-10-14T20:18:20.260Z,2.53
2023-10-14T20:20:50.306Z,2.67
2023-10-14T20:23:18.558Z,2.50
2023-10-14T20:25:53.338Z,2.17
2023-10-14T20:28:20.940Z,2.60
2023-10-14T20:30:50.304Z,2.80
2023-10-14T20:33:20.824Z,2.90
2023-10-14T20:35:48.595Z,2.50
2023-10-14T20:38:16.566Z,2.20
2023-10-14T20:40:47.550Z,2.63
2023-10-14T20:43:15.439Z,2.53
2023-10-14T20:45:49.001Z,2.53
2023-10-14T20:48:17.480Z,2.07
2023-10-14T20:50:49.508Z,2.20
2023-10-14T20:53:18.432Z,2.00
2023-10-14T20:55:47.269Z,2.00
2023-10-14T20:58:14.994Z,1.80
2023-10-14T21:00:42.342Z,1.90
2023-10-14T21:03:09.906Z,1.83
2023-10-14T21:05:40.682Z,1.70
2023-10-14T21:08:14.578Z,1.90
2023-10-14T21:10:46.002Z,1.90
2023-10-14T21:13:14.476Z,2.10
2023-10-14T21:15:41.953Z,1.50
2023-10-14T21:18:10.002Z,1.97
2023-10-14T21:20:40.318Z,1.87
2023-10-14T21:23:09.987Z,1.70
2023-10-14T21:25:37.786Z,1.80
2023-10-14T21:28:05.623Z,1.47
2023-10-14T21:30:35.709Z,1.90
2023-10-14T21:35:33.851Z,1.67
2023-10-14T21:38:04.580Z,1.80
2023-10-14T21:40:33.127Z,1.60
2023-10-14T21:43:01.230Z,1.70
2023-10-14T21:45:38.589Z,1.53
2023-10-14T21:48:06.887Z,1.60
2023-10-14T21:50:35.636Z,1.53
2023-10-14T21:53:05.069Z,1.60
2023-10-14T21:55:36.056Z,1.67
2023-10-14T21:58:04.064Z,1.53
2023-10-14T22:00:38.228Z,1.80
2023-10-14T22:03:09.354Z,1.60
2023-10-14T22:05:38.592Z,1.90
2023-10-14T22:08:06.685Z,1.80
2023-10-14T22:10:34.210Z,1.73
2023-10-14T22:13:01.719Z,1.90
2023-10-14T22:15:29.804Z,1.53
2023-10-14T22:17:58.060Z,1.80
2023-10-14T22:20:28.873Z,1.70
2023-10-14T22:22:56.234Z,1.73
2023-10-14T22:25:23.638Z,1.73
2023-10-14T22:27:50.977Z,1.80
2023-10-14T22:30:20.697Z,1.87
2023-10-14T22:32:48.827Z,2.00
2023-10-14T22:35:16.956Z,2.00
2023-10-14T22:37:44.769Z,2.07
2023-10-14T22:40:16.210Z,2.53
2023-10-14T22:42:51.070Z,2.07
2023-10-14T22:45:20.177Z,2.40
2023-10-14T22:47:48.351Z,1.90
2023-10-14T22:50:20.020Z,2.00
2023-10-14T22:52:49.122Z,1.80
2023-10-14T22:55:19.722Z,2.57
2023-10-14T22:57:48.985Z,2.20
2023-10-14T23:00:24.382Z,2.03
2023-10-14T23:02:57.699Z,1.80
2023-10-14T23:05:30.373Z,1.77
2023-10-14T23:08:00.653Z,1.77
2023-10-14T23:10:32.853Z,1.90
2023-10-14T23:13:01.734Z,1.80
2023-10-14T23:15:29.940Z,1.50
2023-10-14T23:17:58.899Z,1.80
2023-10-14T23:20:27.994Z,1.50
2023-10-14T23:22:56.376Z,1.67
2023-10-14T23:25:25.495Z,1.90
2023-10-14T23:27:54.846Z,1.97
2023-10-14T23:30:23.524Z,1.67
2023-10-14T23:33:04.826Z,1.80
2023-10-14T23:35:35.443Z,1.60
2023-10-14T23:38:07.319Z,1.60
2023-10-14T23:40:35.289Z,1.80
2023-10-14T23:43:03.198Z,1.57
2023-10-14T23:45:33.806Z,1.77
2023-10-14T23:48:03.291Z,1.50
2023-10-14T23:50:31.163Z,1.77
2023-10-14T23:52:58.510Z,1.60
2023-10-14T23:55:26.802Z,1.40
2023-10-14T23:58:00.470Z,2.17
